createdAt,value
2022-12-29T04:02:19.809Z,99.90
2022-12-29T04:04:47.271Z,99.90
2022-12-29T04:07:14.532Z,99.90
2022-12-29T04:09:42.013Z,99.90
2022-12-29T04:12:09.282Z,99.90
2022-12-29T04:14:36.508Z,99.90
2022-12-29T04:17:03.893Z,99.90
2022-12-29T04:19:31.128Z,99.90
2022-12-29T04:21:58.427Z,99.90
2022-12-29T04:24:25.665Z,99.90
2022-12-29T04:26:52.873Z,99.90
2022-12-29T04:29:20.205Z,99.90
2022-12-29T04:31:47.478Z,99.90
2022-12-29T04:34:14.867Z,99.90
2022-12-29T04:36:42.132Z,99.90
2022-12-29T04:39:09.693Z,99.90
2022-12-29T04:41:37.030Z,99.90
2022-12-29T04:44:07.714Z,99.90
2022-12-29T04:46:35.041Z,99.90
2022-12-29T04:49:08.663Z,99.90
2022-12-29T04:51:36.564Z,99.90
2022-12-29T04:54:04.034Z,99.90
2022-12-29T04:56:31.296Z,99.90
2022-12-29T04:58:58.612Z,99.90
2022-12-29T05:01:25.899Z,99.90
2022-12-29T05:03:53.258Z,99.90
2022-12-29T05:06:20.723Z,99.90
2022-12-29T05:08:47.934Z,99.90
2022-12-29T05:11:15.156Z,99.90
2022-12-29T05:13:42.398Z,99.90
2022-12-29T05:16:09.645Z,99.90
2022-12-29T05:18:36.916Z,99.90
2022-12-29T05:21:04.304Z,99.90
2022-12-29T05:23:31.607Z,99.90
2022-12-29T05:25:58.835Z,99.90
2022-12-29T05:28:26.105Z,99.90
2022-12-29T05:30:53.406Z,99.90
2022-12-29T05:33:21.265Z,99.90
2022-12-29T05:35:48.527Z,99.90
2022-12-29T05:38:15.788Z,99.90
2022-12-29T05:40:44.292Z,99.90
2022-12-29T05:43:11.601Z,99.90
2022-12-29T05:45:38.783Z,99.90
2022-12-29T05:48:06.215Z,99.90
2022-12-29T05:50:33.411Z,99.90
2022-12-29T05:53:00.617Z,99.90
2022-12-29T05:55:27.837Z,99.90
2022-12-29T05:57:55.111Z,99.90
2022-12-29T06:00:22.419Z,99.90
2022-12-29T06:02:49.860Z,99.90
2022-12-29T06:05:17.461Z,99.90
2022-12-29T06:07:45.784Z,99.90
2022-12-29T06:10:13.082Z,99.90
2022-12-29T06:12:40.331Z,99.90
2022-12-29T06:15:08.038Z,99.90
2022-12-29T06:17:35.246Z,99.90
2022-12-29T06:20:03.486Z,99.90
2022-12-29T06:22:30.756Z,99.90
2022-12-29T06:25:04.415Z,99.90
2022-12-29T06:27:32.766Z,99.90
2022-12-29T06:30:00.047Z,99.90
2022-12-29T06:32:27.615Z,99.90
2022-12-29T06:34:54.873Z,99.90
2022-12-29T06:37:22.112Z,99.90
2022-12-29T06:39:49.324Z,99.90
2022-12-29T06:42:16.624Z,99.90
2022-12-29T06:44:45.662Z,99.90
2022-12-29T06:47:12.919Z,99.90
2022-12-29T06:49:40.173Z,99.90
2022-12-29T06:52:12.481Z,99.90
2022-12-29T06:54:40.478Z,99.90
2022-12-29T06:57:08.053Z,99.90
2022-12-29T06:59:35.338Z,99.90
2022-12-29T07:02:03.458Z,99.90
2022-12-29T07:04:30.896Z,99.90
2022-12-29T07:06:58.118Z,99.90
2022-12-29T07:09:25.374Z,99.90
2022-12-29T07:11:52.609Z,99.90
2022-12-29T07:14:19.896Z,99.90
2022-12-29T07:16:47.213Z,99.90
2022-12-29T07:19:14.543Z,99.90
2022-12-29T07:21:47.628Z,99.90
2022-12-29T07:24:14.891Z,99.90
2022-12-29T07:26:42.812Z,99.90
2022-12-29T07:29:10.083Z,99.90
2022-12-29T07:31:37.413Z,99.90
2022-12-29T07:34:04.670Z,99.90
2022-12-29T07:36:34.581Z,99.90
2022-12-29T07:39:02.964Z,99.90
2022-12-29T07:41:30.338Z,99.90
2022-12-29T07:43:58.494Z,99.90
2022-12-29T07:46:53.986Z,99.90
2022-12-29T07:49:13.439Z,99.90
2022-12-29T07:51:43.501Z,99.90
2022-12-29T07:54:11.359Z,99.90
2022-12-29T07:56:38.607Z,99.90
2022-12-29T07:59:05.877Z,99.90
2022-12-29T08:01:33.237Z,99.90
2022-12-29T08:04:00.558Z,99.90
2022-12-29T08:06:27.963Z,99.90
2022-12-29T08:08:57.217Z,99.90
2022-12-29T08:11:25.062Z,99.90
2022-12-29T08:13:52.415Z,99.90
2022-12-29T08:16:19.648Z,99.90
2022-12-29T08:18:46.918Z,99.90
2022-12-29T08:21:14.297Z,99.90
2022-12-29T08:23:41.670Z,99.90
2022-12-29T08:26:08.915Z,99.90
2022-12-29T08:28:36.147Z,99.90
2022-12-29T08:31:04.145Z,99.90
2022-12-29T08:33:31.584Z,99.80
2022-12-29T08:36:07.160Z,99.90
2022-12-29T08:38:34.860Z,99.90
2022-12-29T08:41:02.455Z,99.90
2022-12-29T08:43:30.580Z,99.90
2022-12-29T08:45:59.714Z,99.90
2022-12-29T08:48:27.467Z,99.90
2022-12-29T08:50:55.069Z,99.50
2022-12-29T08:53:22.320Z,99.90
2022-12-29T08:56:03.680Z,99.90
2022-12-29T08:58:32.527Z,99.30
2022-12-29T09:01:00.298Z,99.50
2022-12-29T09:06:16.920Z,98.60
2022-12-29T09:08:44.915Z,99.00
2022-12-29T09:11:16.875Z,98.30
2022-12-29T09:13:44.192Z,99.00
2022-12-29T09:16:11.948Z,99.30
2022-12-29T09:18:40.098Z,99.00
2022-12-29T09:21:08.224Z,99.00
2022-12-29T09:23:35.888Z,99.50
2022-12-29T09:26:04.024Z,98.90
2022-12-29T09:28:31.984Z,98.40
2022-12-29T09:30:59.894Z,97.50
2022-12-29T09:33:28.083Z,98.50
2022-12-29T09:35:57.973Z,98.20
2022-12-29T09:38:26.706Z,98.90
2022-12-29T09:40:57.064Z,98.90
2022-12-29T09:43:45.907Z,98.00
2022-12-29T09:46:45.976Z,98.00
2022-12-29T09:49:47.158Z,97.00
2022-12-29T09:52:16.138Z,96.90
2022-12-29T09:55:02.361Z,97.20
2022-12-29T09:58:02.413Z,97.30
2022-12-29T10:00:55.045Z,96.10
2022-12-29T10:03:25.812Z,95.70
2022-12-29T10:06:16.518Z,97.00
2022-12-29T10:09:02.561Z,97.10
2022-12-29T10:11:35.840Z,96.00
2022-12-29T10:14:30.622Z,95.90
2022-12-29T10:17:09.753Z,96.50
2022-12-29T10:20:04.735Z,97.30
2022-12-29T10:22:55.078Z,96.50
2022-12-29T10:25:28.373Z,97.10
2022-12-29T10:28:04.325Z,97.00
2022-12-29T10:30:35.731Z,95.60
2022-12-29T10:33:09.863Z,95.90
2022-12-29T10:35:41.578Z,95.80
2022-12-29T10:38:28.397Z,96.20
2022-12-29T10:41:07.391Z,95.50
2022-12-29T10:44:16.224Z,95.60
2022-12-29T10:46:56.248Z,94.90
2022-12-29T10:49:25.918Z,94.90
2022-12-29T10:51:58.054Z,94.90
2022-12-29T10:54:37.256Z,94.20
2022-12-29T10:57:30.694Z,94.10
2022-12-29T10:59:58.894Z,92.90
2022-12-29T11:02:47.517Z,93.60
2022-12-29T11:05:36.906Z,93.80
2022-12-29T11:08:10.384Z,93.60
2022-12-29T11:10:42.004Z,93.80
2022-12-29T11:13:18.757Z,94.00
2022-12-29T11:15:48.616Z,93.90
2022-12-29T11:18:40.980Z,93.80
2022-12-29T11:21:24.712Z,94.90
2022-12-29T11:24:04.107Z,94.40
2022-12-29T11:26:35.036Z,94.40
2022-12-29T11:29:21.191Z,94.40
2022-12-29T11:31:51.114Z,94.50
2022-12-29T11:34:24.819Z,93.60
2022-12-29T11:36:55.065Z,93.90
2022-12-29T11:39:30.596Z,93.60
2022-12-29T11:41:58.619Z,93.30
2022-12-29T11:44:27.525Z,92.10
2022-12-29T11:46:55.934Z,93.00
2022-12-29T11:49:27.555Z,93.00
2022-12-29T11:51:57.652Z,93.30
2022-12-29T11:54:32.060Z,92.40
2022-12-29T11:57:09.600Z,92.90
2022-12-29T11:59:43.747Z,94.10
2022-12-29T12:02:17.102Z,93.50
2022-12-29T12:04:47.258Z,93.50
2022-12-29T12:07:44.253Z,93.80
2022-12-29T12:10:21.077Z,92.70
2022-12-29T12:12:52.615Z,92.50
2022-12-29T12:15:30.281Z,93.20
2022-12-29T12:18:15.701Z,92.70
2022-12-29T12:20:49.171Z,91.60
2022-12-29T12:23:26.924Z,91.80
2022-12-29T12:26:35.377Z,93.00
2022-12-29T12:29:18.587Z,92.40
2022-12-29T12:32:04.722Z,92.30
2022-12-29T12:34:38.111Z,93.00
2022-12-29T12:37:14.325Z,91.90
2022-12-29T12:40:08.205Z,91.70
2022-12-29T12:42:44.032Z,92.50
2022-12-29T12:46:01.721Z,92.60
2022-12-29T12:48:45.497Z,90.30
2022-12-29T12:51:22.062Z,90.30
2022-12-29T12:54:23.006Z,90.00
2022-12-29T12:57:12.467Z,90.10
2022-12-29T13:00:09.598Z,90.60
2022-12-29T13:02:45.852Z,88.80
2022-12-29T13:05:46.407Z,88.80
2022-12-29T13:08:19.252Z,88.40
2022-12-29T13:11:08.366Z,85.80
2022-12-29T13:13:43.576Z,87.70
2022-12-29T13:16:23.983Z,87.60
2022-12-29T13:19:03.817Z,86.90
2022-12-29T13:22:01.853Z,84.00
2022-12-29T13:24:36.862Z,86.30
2022-12-29T13:27:25.541Z,85.90
2022-12-29T13:30:10.319Z,86.10
2022-12-29T13:32:52.856Z,86.90
2022-12-29T13:35:26.024Z,86.30
2022-12-29T13:38:02.764Z,84.70
2022-12-29T13:40:35.781Z,88.40
2022-12-29T13:43:03.556Z,89.00
2022-12-29T13:45:33.214Z,89.70
2022-12-29T13:48:24.337Z,88.20
2022-12-29T13:50:58.781Z,87.90
2022-12-29T13:53:49.824Z,88.90
2022-12-29T13:56:50.530Z,90.60
2022-12-29T13:59:41.991Z,91.50
2022-12-29T14:02:41.030Z,91.90
2022-12-29T14:05:23.797Z,91.70
2022-12-29T14:08:00.715Z,92.20
2022-12-29T14:10:34.425Z,92.70
2022-12-29T14:13:04.515Z,93.00
2022-12-29T14:15:32.133Z,93.40
2022-12-29T14:18:25.189Z,93.30
2022-12-29T14:20:58.912Z,94.20
2022-12-29T14:24:18.392Z,94.30
2022-12-29T14:26:48.035Z,94.70
2022-12-29T14:29:41.243Z,94.60
2022-12-29T14:32:38.558Z,95.40
2022-12-29T14:35:46.981Z,96.10
2022-12-29T14:38:20.499Z,96.20
2022-12-29T14:40:49.201Z,96.60
2022-12-29T14:43:26.318Z,96.80
2022-12-29T14:46:00.407Z,96.70
2022-12-29T14:48:46.020Z,96.60
2022-12-29T14:51:33.286Z,96.20
2022-12-29T14:54:00.544Z,96.10
2022-12-29T14:56:32.222Z,97.10
2022-12-29T14:59:03.949Z,97.40
2022-12-29T15:01:34.178Z,97.10
2022-12-29T15:04:26.180Z,97.10
2022-12-29T15:06:54.260Z,97.60
2022-12-29T15:09:43.795Z,97.50
2022-12-29T15:12:44.494Z,97.70
2022-12-29T15:15:25.197Z,98.00
2022-12-29T15:17:52.861Z,98.60
2022-12-29T15:20:24.124Z,98.50
2022-12-29T15:23:12.731Z,98.50
2022-12-29T15:25:58.878Z,98.00
2022-12-29T15:28:28.074Z,98.30
2022-12-29T15:31:07.565Z,98.90
2022-12-29T15:33:40.385Z,99.20
2022-12-29T15:36:14.401Z,99.40
2022-12-29T15:38:41.742Z,99.80
2022-12-29T15:41:58.515Z,99.30
2022-12-29T15:44:30.976Z,99.40
2022-12-29T15:46:58.724Z,98.80
2022-12-29T15:49:31.848Z,98.40
2022-12-29T15:52:00.008Z,96.80
2022-12-29T15:54:31.283Z,97.60
2022-12-29T15:56:58.631Z,97.70
2022-12-29T15:59:35.337Z,96.20
2022-12-29T16:02:10.136Z,96.30
2022-12-29T16:05:01.539Z,96.50
2022-12-29T16:07:41.642Z,96.90
2022-12-29T16:10:24.705Z,96.30
2022-12-29T16:12:52.081Z,96.30
2022-12-29T16:15:19.941Z,96.80
2022-12-29T16:17:51.724Z,96.50
2022-12-29T16:20:24.291Z,96.90
2022-12-29T16:22:58.029Z,96.60
2022-12-29T16:25:35.509Z,97.10
2022-12-29T16:28:15.007Z,96.80
2022-12-29T16:30:42.275Z,96.80
2022-12-29T16:33:38.156Z,96.40
2022-12-29T16:36:26.924Z,97.40
2022-12-29T16:39:23.097Z,97.50
2022-12-29T16:41:51.393Z,97.00
2022-12-29T16:44:21.695Z,97.70
2022-12-29T16:47:12.622Z,96.80
2022-12-29T16:49:42.881Z,96.50
2022-12-29T16:52:18.867Z,96.70
2022-12-29T16:54:53.455Z,97.10
2022-12-29T16:57:26.501Z,97.10
2022-12-29T16:59:57.321Z,97.00
2022-12-29T17:02:28.044Z,96.90
2022-12-29T17:04:55.471Z,97.40
2022-12-29T17:07:25.732Z,97.30
2022-12-29T17:09:56.675Z,97.70
2022-12-29T17:12:29.744Z,97.40
2022-12-29T17:15:09.372Z,97.60
2022-12-29T17:17:49.162Z,97.70
2022-12-29T17:20:18.505Z,97.80
2022-12-29T17:22:46.182Z,97.40
2022-12-29T17:25:16.727Z,97.60
2022-12-29T17:27:46.656Z,97.80
2022-12-29T17:30:15.926Z,97.70
2022-12-29T17:32:46.739Z,97.30
2022-12-29T17:35:19.154Z,97.70
2022-12-29T17:37:46.877Z,97.50
2022-12-29T17:40:17.460Z,97.40
2022-12-29T17:42:49.687Z,97.10
2022-12-29T17:45:20.267Z,97.70
2022-12-29T17:47:48.207Z,97.70
2022-12-29T17:50:18.237Z,97.40
2022-12-29T17:52:53.176Z,97.40
2022-12-29T17:55:22.905Z,97.90
2022-12-29T17:57:50.412Z,97.80
2022-12-29T18:00:20.506Z,97.80
2022-12-29T18:02:48.838Z,97.20
2022-12-29T18:05:30.838Z,97.70
2022-12-29T18:08:00.336Z,97.80
2022-12-29T18:10:30.688Z,97.80
2022-12-29T18:13:00.536Z,97.70
2022-12-29T18:15:31.728Z,98.40
2022-12-29T18:18:03.753Z,98.50
2022-12-29T18:20:31.343Z,99.70
2022-12-29T18:23:01.410Z,99.90
2022-12-29T18:25:42.162Z,99.90
2022-12-29T18:28:09.593Z,99.90
2022-12-29T18:30:37.067Z,99.90
2022-12-29T18:33:05.490Z,99.90
2022-12-29T18:35:41.070Z,99.90
2022-12-29T18:38:08.813Z,99.90
2022-12-29T18:40:42.226Z,99.90
2022-12-29T18:43:13.923Z,99.90
2022-12-29T18:45:41.345Z,99.90
2022-12-29T18:48:08.751Z,99.90
2022-12-29T18:50:36.020Z,99.90
2022-12-29T18:53:04.251Z,99.90
2022-12-29T18:55:31.863Z,99.90
2022-12-29T18:57:59.317Z,99.90
2022-12-29T19:00:26.668Z,99.90
2022-12-29T19:02:53.981Z,99.90
2022-12-29T19:05:30.070Z,99.90
2022-12-29T19:07:57.562Z,99.90
2022-12-29T19:10:26.049Z,99.90
2022-12-29T19:12:53.563Z,99.90
2022-12-29T19:15:35.875Z,99.90
2022-12-29T19:18:42.365Z,99.90
2022-12-29T19:20:54.658Z,99.90
2022-12-29T19:23:24.542Z,99.90
2022-12-29T19:25:53.502Z,99.90
2022-12-29T19:28:26.369Z,99.90
2022-12-29T19:30:57.465Z,99.90
2022-12-29T19:33:25.166Z,99.90
2022-12-29T19:35:52.950Z,99.90
2022-12-29T19:38:20.606Z,99.90
2022-12-29T19:40:50.807Z,99.90
2022-12-29T19:43:18.586Z,99.90
2022-12-29T19:45:46.228Z,99.90
2022-12-29T19:48:16.396Z,99.90
2022-12-29T19:50:44.161Z,99.90
2022-12-29T19:53:14.619Z,99.90
2022-12-29T19:55:43.523Z,99.90
2022-12-29T19:58:11.254Z,99.90
2022-12-29T20:00:40.219Z,99.90
2022-12-29T20:03:07.626Z,99.90
2022-12-29T20:05:35.029Z,99.90
2022-12-29T20:08:02.297Z,99.90
2022-12-29T20:10:29.585Z,99.90
2022-12-29T20:12:56.860Z,99.90
2022-12-29T20:15:24.162Z,99.90
2022-12-29T20:20:38.635Z,99.90
2022-12-29T20:23:06.502Z,99.90
2022-12-29T20:25:44.765Z,99.90
2022-12-29T20:28:14.620Z,99.90
2022-12-29T20:30:41.880Z,99.90
2022-12-29T20:33:09.232Z,99.90
2022-12-29T20:35:37.434Z,99.90
2022-12-29T20:38:05.297Z,99.90
2022-12-29T20:40:32.725Z,99.90
2022-12-29T20:43:00.003Z,99.90
2022-12-29T20:45:27.545Z,99.90
2022-12-29T20:47:54.839Z,99.90
2022-12-29T20:50:22.128Z,99.90
2022-12-29T20:52:49.787Z,99.90
2022-12-29T20:55:17.125Z,99.90
2022-12-29T20:58:22.100Z,99.90
2022-12-29T21:00:33.345Z,99.90
2022-12-29T21:03:01.198Z,99.90
2022-12-29T21:05:29.192Z,99.90
2022-12-29T21:07:59.637Z,99.90
2022-12-29T21:10:27.106Z,99.90
2022-12-29T21:12:54.522Z,99.90
2022-12-29T21:15:21.858Z,99.90
2022-12-29T21:17:49.334Z,99.90
2022-12-29T21:20:31.658Z,99.90
2022-12-29T21:23:00.701Z,99.90
2022-12-29T21:25:36.885Z,99.90
2022-12-29T21:28:05.881Z,99.90
2022-12-29T21:30:34.490Z,99.90
2022-12-29T21:33:01.960Z,99.90
2022-12-29T21:35:29.515Z,99.90
2022-12-29T21:37:57.243Z,99.90
2022-12-29T21:40:25.643Z,99.90
2022-12-29T21:42:52.973Z,99.90
2022-12-29T21:45:26.460Z,99.90
2022-12-29T21:48:13.374Z,99.90
2022-12-29T21:51:11.484Z,99.90
2022-12-29T21:53:41.325Z,99.90
2022-12-29T21:56:13.085Z,99.90
2022-12-29T21:59:01.658Z,99.90
